Time;durP1;ratioP1;P1;durP2;ratioP2;P2;SDS_P1;SDS_P2;PMS_P1;PMS_P2;Temp;Humidity;BMP_temperature;BMP_pressure;BME280_temperature;BME280_humidity;BME280_pressure;Samples;Min_cycle;Max_cycle;Signal;HPM_P1;HPM_P2
2022/03/14 00:01:38;;;;;;;8.87;4.80;;;;;;;0.04;60.19;95741.91;5031333;28;20580;-62
2022/03/14 00:04:04;;;;;;;8.40;4.37;;;;;;;0.02;59.01;95751.97;5042925;23;20189;-62
2022/03/14 00:06:29;;;;;;;10.23;4.87;;;;;;;0.12;59.53;95762.53;5033827;28;20233;-62
2022/03/14 00:08:57;;;;;;;9.83;4.67;;;;;;;0.14;58.84;95761.63;5035012;28;20216;-63
2022/03/14 00:11:24;;;;;;;10.13;4.77;;;;;;;0.14;58.79;95761.63;5034800;28;20198;-63
2022/03/14 00:13:50;;;;;;;8.00;4.63;;;;;;;0.03;60.98;95725.25;5034436;28;20265;-65
2022/03/14 00:16:27;;;;;;;10.67;5.10;;;;;;;-0.13;61.70;95719.88;5034851;28;20217;-62
2022/03/14 00:18:57;;;;;;;8.07;4.90;;;;;;;-0.29;60.85;95738.59;5034448;28;20176;-64
2022/03/14 00:21:25;;;;;;;10.40;5.53;;;;;;;-0.31;60.62;95751.13;5017425;28;20202;-65
2022/03/14 00:23:56;;;;;;;11.83;5.53;;;;;;;-0.42;60.26;95757.22;5016470;28;20325;-62
2022/03/14 00:26:22;;;;;;;11.67;5.50;;;;;;;-0.34;60.14;95758.69;5034634;28;20259;-63
2022/03/14 00:28:51;;;;;;;10.93;5.03;;;;;;;-0.38;59.99;95754.63;5016545;28;20181;-61
2022/03/14 00:31:16;;;;;;;10.33;4.70;;;;;;;-0.42;59.78;95759.72;5040656;23;20241;-63
2022/03/14 00:33:42;;;;;;;8.63;5.23;;;;;;;-0.44;59.02;95774.75;5034405;28;20185;-60
2022/03/14 00:36:08;;;;;;;8.17;4.50;;;;;;;-0.38;58.71;95769.63;5034611;28;20324;-61
2022/03/14 00:38:36;;;;;;;8.50;4.50;;;;;;;-0.40;58.58;95786.31;5034124;28;20272;-64
2022/03/14 00:41:03;;;;;;;7.10;4.37;;;;;;;-0.56;58.50;95781.72;5034564;28;20591;-61
2022/03/14 00:43:29;;;;;;;7.57;4.03;;;;;;;-0.82;59.13;95764.88;5034339;28;20666;-61
2022/03/14 00:45:54;;;;;;;5.93;3.90;;;;;;;-0.83;59.71;95767.41;5034066;28;20212;-62
2022/03/14 00:48:20;;;;;;;8.67;4.73;;;;;;;-0.85;59.90;95763.25;5034393;28;20181;-62
2022/03/14 00:50:46;;;;;;;7.37;3.93;;;;;;;-0.77;60.09;95763.09;5016879;28;20217;-63
2022/03/14 00:53:12;;;;;;;6.60;3.80;;;;;;;-0.78;60.22;95763.94;5034075;28;20559;-61
2022/03/14 00:55:37;;;;;;;6.63;4.13;;;;;;;-0.60;60.29;95752.69;5033998;28;20656;-62
2022/03/14 00:58:03;;;;;;;8.43;3.80;;;;;;;-0.69;60.32;95761.25;5016228;28;20185;-62
2022/03/14 01:00:28;;;;;;;9.77;5.10;;;;;;;-0.55;60.73;95761.72;5034197;28;20212;-62
2022/03/14 01:02:54;;;;;;;6.73;3.93;;;;;;;-0.41;59.37;95779.69;5033685;28;20210;-64
2022/03/14 01:05:20;;;;;;;7.63;4.73;;;;;;;-0.48;59.37;95783.19;5033752;28;20289;-62
2022/03/14 01:07:46;;;;;;;6.00;4.03;;;;;;;-0.39;58.67;95794.63;5033791;28;20212;-62
2022/03/14 01:10:13;;;;;;;8.90;4.70;;;;;;;-0.43;59.71;95768.09;5033505;28;20217;-64
2022/03/14 01:12:39;;;;;;;8.23;4.33;;;;;;;-0.27;59.23;95786.84;5033814;28;20173;-60
2022/03/14 01:15:05;;;;;;;6.60;4.27;;;;;;;-0.26;60.52;95764.31;5014992;28;20241;-62
2022/03/14 01:17:30;;;;;;;9.27;4.80;;;;;;;-0.17;59.00;95799.06;5033565;28;20223;-60
2022/03/14 01:19:56;;;;;;;8.20;4.90;;;;;;;0.05;58.78;95798.50;5033192;28;20189;-62
2022/03/14 01:22:21;;;;;;;9.23;4.87;;;;;;;-0.04;59.06;95795.41;5039876;23;20237;-62
2022/03/14 01:24:47;;;;;;;8.70;4.77;;;;;;;-0.01;59.48;95792.81;5033443;28;20212;-62
2022/03/14 01:27:12;;;;;;;9.13;5.03;;;;;;;0.05;58.42;95806.00;5033860;28;20288;-63
2022/03/14 01:29:38;;;;;;;9.80;5.03;;;;;;;-0.03;59.87;95787.06;5085863;23;20233;-60
2022/03/14 01:32:05;;;;;;;10.10;5.23;;;;;;;0.02;58.85;95794.44;5053378;28;20200;-62
2022/03/14 01:34:31;;;;;;;6.87;5.23;;;;;;;0.04;58.99;95799.38;5052131;28;20223;-62
2022/03/14 01:36:57;;;;;;;6.90;4.97;;;;;;;-0.05;59.30;95800.44;5052928;28;20632;-64
2022/03/14 01:39:23;;;;;;;8.20;5.00;;;;;;;-0.13;60.38;95778.16;5053324;28;20187;-60
2022/03/14 01:41:49;;;;;;;9.53;5.37;;;;;;;-0.05;59.81;95795.44;5052658;28;20213;-61
2022/03/14 01:44:15;;;;;;;9.80;5.67;;;;;;;-0.19;61.20;95770.00;5052108;28;20176;-62
2022/03/14 01:46:42;;;;;;;11.77;6.17;;;;;;;-0.16;61.37;95770.72;5052615;28;20693;-61
2022/03/14 01:49:07;;;;;;;10.67;6.33;;;;;;;-0.02;61.37;95778.69;5053208;28;20192;-61
2022/03/14 01:51:36;;;;;;;10.63;6.43;;;;;;;0.26;60.46;95797.97;5052652;28;20205;-62
2022/03/14 01:54:03;;;;;;;16.20;7.07;;;;;;;0.19;60.79;95786.47;5053168;28;20204;-62
2022/03/14 01:56:28;;;;;;;9.10;6.13;;;;;;;0.14;62.58;95763.28;5052479;28;20200;-64
2022/03/14 01:58:54;;;;;;;10.53;5.63;;;;;;;0.18;64.20;95743.19;5053092;28;20185;-62
2022/03/14 02:01:20;;;;;;;10.83;5.33;;;;;;;0.20;63.91;95748.97;5051187;28;20209;-64
2022/03/14 02:03:49;;;;;;;14.57;7.27;;;;;;;0.23;63.16;95768.03;5052846;28;20290;-60
2022/03/14 02:06:14;;;;;;;13.77;7.40;;;;;;;0.56;62.71;95777.13;5052347;28;20205;-59
2022/03/14 02:08:40;;;;;;;18.00;7.70;;;;;;;0.48;62.11;95784.03;5052856;28;20234;-61
2022/03/14 02:11:06;;;;;;;10.00;6.47;;;;;;;0.25;61.62;95791.31;5053003;28;20262;-62
2022/03/14 02:13:31;;;;;;;8.87;4.87;;;;;;;0.13;61.76;95787.47;5052756;28;20196;-60
2022/03/14 02:15:57;;;;;;;10.27;5.80;;;;;;;-0.02;62.43;95786.19;5052463;28;20198;-62
2022/03/14 02:18:23;;;;;;;10.77;6.67;;;;;;;-0.20;63.23;95786.66;5052799;28;20181;-61
2022/03/14 02:20:49;;;;;;;14.00;7.23;;;;;;;-0.40;62.07;95805.47;5052229;28;20186;-61
2022/03/14 02:23:14;;;;;;;15.37;7.03;;;;;;;-0.65;61.69;95805.25;5034422;28;20299;-63
2022/03/14 02:25:51;;;;;;;11.50;7.23;;;;;;;-0.91;61.26;95820.00;5050222;28;20204;-61
2022/03/14 02:28:22;;;;;;;8.93;5.57;;;;;;;-1.04;60.95;95828.56;5051179;28;20203;-62
2022/03/14 02:30:51;;;;;;;8.83;5.13;;;;;;;-1.11;61.39;95822.88;5052389;28;20205;-63
2022/03/14 02:33:16;;;;;;;10.70;5.70;;;;;;;-1.19;63.25;95798.97;5052736;28;20188;-61
2022/03/14 02:35:43;;;;;;;7.90;5.57;;;;;;;-1.18;61.75;95836.34;5052009;28;20708;-63
2022/03/14 02:38:15;;;;;;;7.03;4.20;;;;;;;-1.26;61.64;95835.69;5050452;28;20271;-62
2022/03/14 02:40:48;;;;;;;6.83;3.43;;;;;;;-1.51;61.51;95832.03;5050574;28;20200;-61
2022/03/14 02:43:24;;;;;;;4.97;3.40;;;;;;;-1.46;61.58;95829.44;5052240;28;20273;-59
2022/03/14 02:45:51;;;;;;;6.20;3.70;;;;;;;-1.59;62.39;95808.09;5050533;28;20211;-64
2022/03/14 02:48:18;;;;;;;6.30;3.70;;;;;;;-1.68;63.30;95800.81;5052102;28;20244;-64
2022/03/14 02:50:43;;;;;;;12.73;5.50;;;;;;;-1.84;64.15;95802.78;5051641;28;20249;-64
2022/03/14 02:53:13;;;;;;;6.00;3.23;;;;;;;-1.88;64.46;95797.00;5051902;28;20585;-62
2022/03/14 02:55:40;;;;;;;7.43;4.17;;;;;;;-1.77;64.59;95795.16;5051693;28;20197;-64
2022/03/14 02:58:06;;;;;;;6.97;4.13;;;;;;;-1.75;64.54;95795.94;5051731;28;20232;-64
2022/03/14 03:00:32;;;;;;;6.60;3.77;;;;;;;-1.78;64.41;95805.94;5033677;28;20208;-64
2022/03/14 03:02:58;;;;;;;8.27;3.87;;;;;;;-1.65;64.46;95811.53;5051732;28;20689;-60
2022/03/14 03:05:23;;;;;;;7.73;4.07;;;;;;;-1.53;63.81;95820.44;5051526;28;20206;-62
2022/03/14 03:07:49;;;;;;;7.27;4.10;;;;;;;-1.55;64.74;95817.16;5051690;28;20646;-62
2022/03/14 03:10:23;;;;;;;8.30;4.10;;;;;;;-1.44;64.29;95821.09;5051733;28;20206;-62
2022/03/14 03:12:49;;;;;;;7.87;3.73;;;;;;;-1.29;63.97;95834.91;5051741;28;20260;-64
2022/03/14 03:15:15;;;;;;;4.43;2.93;;;;;;;-1.54;62.67;95849.53;5051576;28;20203;-63
2022/03/14 03:17:41;;;;;;;7.03;4.20;;;;;;;-1.56;63.63;95833.78;5051772;28;20756;-63
2022/03/14 03:20:08;;;;;;;7.53;3.90;;;;;;;-1.79;63.81;95831.72;5051314;28;20201;-65
2022/03/14 03:22:33;;;;;;;8.07;4.10;;;;;;;-2.11;65.77;95808.22;5051411;28;20216;-61
2022/03/14 03:24:59;;;;;;;6.60;4.03;;;;;;;-2.11;66.29;95814.03;5051324;28;20673;-60
2022/03/14 03:27:24;;;;;;;6.87;4.10;;;;;;;-2.16;66.46;95805.81;5051491;28;20179;-61
2022/03/14 03:29:50;;;;;;;7.37;4.20;;;;;;;-2.28;66.98;95800.25;5051068;28;20286;-61
2022/03/14 03:32:15;;;;;;;6.53;3.50;;;;;;;-2.39;67.47;95797.94;5049996;28;20653;-60
2022/03/14 03:34:41;;;;;;;6.87;4.30;;;;;;;-2.52;68.56;95788.22;5051397;28;20200;-62
2022/03/14 03:37:06;;;;;;;9.10;4.30;;;;;;;-2.60;69.36;95791.63;5050606;28;20206;-61
2022/03/14 03:39:32;;;;;;;8.47;4.23;;;;;;;-2.61;69.43;95785.00;5055246;28;20174;-64
2022/03/14 03:41:57;;;;;;;7.47;3.90;;;;;;;-2.57;69.53;95788.28;5054881;28;20565;-61
2022/03/14 03:44:23;;;;;;;6.20;3.63;;;;;;;-2.49;69.92;95801.41;5055109;28;20173;-61
2022/03/14 03:46:49;;;;;;;8.27;4.00;;;;;;;-2.53;70.18;95807.28;5054854;28;20623;-62
2022/03/14 03:49:14;;;;;;;7.10;4.70;;;;;;;-2.57;70.75;95804.03;5055046;28;20182;-62
2022/03/14 03:51:40;;;;;;;6.53;3.73;;;;;;;-2.68;70.87;95807.50;5053440;28;20203;-62
2022/03/14 03:54:06;;;;;;;7.33;4.43;;;;;;;-2.62;70.47;95825.66;5055383;28;20244;-62
2022/03/14 03:56:34;;;;;;;8.67;4.13;;;;;;;-2.74;71.21;95830.81;5054991;28;20205;-62
2022/03/14 03:59:00;;;;;;;6.30;4.07;;;;;;;-2.75;70.60;95830.84;5055315;28;20189;-61
2022/03/14 04:01:25;;;;;;;6.27;3.73;;;;;;;-2.78;71.13;95833.38;5053312;28;20197;-62
2022/03/14 04:03:54;;;;;;;4.90;3.03;;;;;;;-2.80;70.96;95835.88;5055183;28;20225;-62
2022/03/14 04:06:27;;;;;;;6.20;4.13;;;;;;;-2.72;70.55;95848.22;5061058;23;20190;-62
2022/03/14 04:08:53;;;;;;;9.67;4.43;;;;;;;-2.75;70.03;95858.22;5053467;28;20213;-61
2022/03/14 04:11:19;;;;;;;6.33;3.83;;;;;;;-2.72;69.58;95868.13;5054641;28;20211;-62
2022/03/14 04:13:45;;;;;;;6.57;3.70;;;;;;;-2.68;69.61;95872.19;5054651;28;20640;-63
2022/03/14 04:16:11;;;;;;;9.93;4.40;;;;;;;-2.65;69.49;95875.47;5035947;23;20222;-62
2022/03/14 04:18:37;;;;;;;6.10;3.97;;;;;;;-2.60;69.36;95882.88;5024808;28;20184;-62
2022/03/14 04:21:03;;;;;;;8.17;3.70;;;;;;;-2.40;68.81;95895.84;5025317;28;20204;-62
2022/03/14 04:23:31;;;;;;;9.70;4.40;;;;;;;-2.35;67.81;95906.56;5034358;28;20210;-62
2022/03/14 04:25:57;;;;;;;9.43;4.13;;;;;;;-2.31;68.39;95893.22;5034852;28;20221;-62
2022/03/14 04:28:22;;;;;;;7.53;4.33;;;;;;;-2.34;67.81;95909.88;5016721;28;20179;-61
2022/03/14 04:30:48;;;;;;;8.63;4.53;;;;;;;-2.27;67.23;95922.22;5034633;28;20675;-61
2022/03/14 04:33:13;;;;;;;12.20;5.00;;;;;;;-2.25;67.48;95917.19;5034381;28;20187;-60
2022/03/14 04:35:40;;;;;;;9.17;3.90;;;;;;;-2.20;68.33;95911.28;5030567;28;20236;-61
2022/03/14 04:38:09;;;;;;;6.03;4.13;;;;;;;-2.02;67.64;95925.94;5033213;28;20181;-64
2022/03/14 04:40:36;;;;;;;8.17;4.67;;;;;;;-2.02;66.23;95940.91;5034385;28;20275;-60
2022/03/14 04:43:09;;;;;;;6.43;3.50;;;;;;;-1.84;66.56;95949.78;5034096;28;20205;-62
2022/03/14 04:45:36;;;;;;;7.60;3.80;;;;;;;-1.84;65.31;95968.00;5034748;28;20199;-60
2022/03/14 04:48:04;;;;;;;6.67;4.40;;;;;;;-1.81;65.67;95970.47;5033762;28;20185;-62
2022/03/14 04:50:29;;;;;;;9.60;4.53;;;;;;;-1.71;66.71;95947.03;5033431;28;20204;-63
2022/03/14 04:52:55;;;;;;;7.50;3.73;;;;;;;-1.55;64.14;95994.13;5034017;28;20706;-62
2022/03/14 04:55:21;;;;;;;7.40;3.93;;;;;;;-1.60;64.05;95983.41;5016161;28;20249;-63
2022/03/14 04:57:46;;;;;;;7.83;4.10;;;;;;;-1.56;64.82;95992.50;5033857;28;20192;-63
2022/03/14 05:00:12;;;;;;;9.23;4.13;;;;;;;-1.81;64.53;95995.38;5016040;28;20668;-61
2022/03/14 05:02:38;;;;;;;7.50;4.10;;;;;;;-1.63;63.97;96006.72;5033811;28;20295;-64
2022/03/14 05:05:04;;;;;;;5.37;4.07;;;;;;;-1.96;64.43;96010.53;5034107;28;20193;-66
2022/03/14 05:07:30;;;;;;;7.97;4.43;;;;;;;-2.12;65.48;95989.19;5033539;28;20266;-62
2022/03/14 05:09:56;;;;;;;7.17;4.37;;;;;;;-1.91;65.99;95991.38;5033573;28;20186;-63
2022/03/14 05:12:22;;;;;;;9.43;4.60;;;;;;;-1.86;65.32;96007.06;5033528;28;20171;-62
2022/03/14 05:14:51;;;;;;;8.63;5.10;;;;;;;-1.92;65.39;96002.19;5033652;28;20197;-61
2022/03/14 05:17:17;;;;;;;6.47;3.77;;;;;;;-2.01;65.81;95994.03;5033489;28;20692;-61
2022/03/14 05:19:43;;;;;;;8.10;5.13;;;;;;;-2.07;65.96;96002.44;5015393;28;20257;-65
2022/03/14 05:22:08;;;;;;;7.87;4.23;;;;;;;-2.27;66.17;96011.84;5015440;28;20218;-61
2022/03/14 05:24:33;;;;;;;8.93;3.77;;;;;;;-2.41;66.64;96006.22;5033376;28;20631;-63
2022/03/14 05:26:59;;;;;;;8.00;4.53;;;;;;;-2.59;67.29;95989.03;5033341;28;20225;-62
2022/03/14 05:29:25;;;;;;;7.20;3.80;;;;;;;-2.76;67.80;95980.94;5033347;28;20265;-66
2022/03/14 05:31:50;;;;;;;7.50;4.00;;;;;;;-2.80;71.66;95942.03;5033230;28;20197;-63
2022/03/14 05:34:16;;;;;;;8.47;3.63;;;;;;;-2.37;72.46;95934.81;5033427;28;20189;-61
2022/03/14 05:36:42;;;;;;;6.50;3.80;;;;;;;-2.13;67.46;96014.13;5039385;23;20236;-62
2022/03/14 05:39:08;;;;;;;8.20;4.00;;;;;;;-2.07;72.02;96061.38;5033315;28;20242;-63
2022/03/14 05:41:34;;;;;;;11.97;5.17;;;;;;;-2.20;67.79;96084.81;5015290;28;20580;-64
2022/03/14 05:43:59;;;;;;;6.53;3.67;;;;;;;-2.28;68.30;96069.94;5015358;28;20210;-62
2022/03/14 05:46:25;;;;;;;9.63;4.60;;;;;;;-2.21;68.23;96066.53;5015230;28;20692;-62
2022/03/14 05:48:50;;;;;;;9.97;4.53;;;;;;;-2.01;69.02;96056.31;5033082;28;20600;-61
2022/03/14 05:51:16;;;;;;;12.53;4.43;;;;;;;-1.86;67.31;96081.03;5032577;28;20206;-62
2022/03/14 05:53:41;;;;;;;9.33;4.40;;;;;;;-1.64;67.76;96069.06;5015069;28;20717;-61
2022/03/14 05:56:07;;;;;;;8.40;4.43;;;;;;;-1.37;66.71;96094.38;5032917;28;20663;-64
2022/03/14 05:58:33;;;;;;;11.73;4.63;;;;;;;-1.29;65.21;96110.06;5032637;28;20204;-64
2022/03/14 06:00:58;;;;;;;19.40;6.00;;;;;;;-1.26;65.28;96109.19;5015192;28;20214;-64
2022/03/14 06:03:24;;;;;;;9.30;5.70;;;;;;;-0.81;72.88;96225.75;5014844;28;20219;-65
2022/03/14 06:05:50;;;;;;;20.37;7.20;;;;;;;-0.82;67.75;96243.22;5033412;28;20216;-64
2022/03/14 06:08:18;;;;;;;17.07;6.57;;;;;;;-0.79;66.95;96229.03;5014853;28;20187;-66
2022/03/14 06:10:46;;;;;;;10.83;7.17;;;;;;;-0.76;66.69;96210.69;5032865;28;20318;-63
2022/03/14 06:13:15;;;;;;;16.07;8.40;;;;;;;-0.71;67.22;96208.94;5014637;28;20219;-67
2022/03/14 06:15:45;;;;;;;19.47;8.67;;;;;;;-0.80;66.48;96189.94;5032880;28;20210;-62
2022/03/14 06:18:11;;;;;;;20.37;8.20;;;;;;;-0.54;67.05;96201.97;5032415;28;20554;-64
2022/03/14 06:20:37;;;;;;;15.73;8.43;;;;;;;-0.53;67.66;96174.50;5039194;23;20243;-63
2022/03/14 06:23:03;;;;;;;19.90;10.03;;;;;;;-0.56;66.69;96191.19;5014624;28;20608;-61
2022/03/14 06:25:28;;;;;;;19.03;11.10;;;;;;;-0.57;67.89;96175.41;5031995;28;20591;-62
2022/03/14 06:27:54;;;;;;;21.43;10.83;;;;;;;-0.59;67.34;96193.75;5032337;28;20181;-66
2022/03/14 06:30:20;;;;;;;20.90;10.77;;;;;;;-0.45;67.32;96190.19;5032493;28;20201;-62
2022/03/14 06:32:48;;;;;;;23.60;13.27;;;;;;;0.00;65.56;96233.50;5032082;28;20178;-66
2022/03/14 06:35:17;;;;;;;26.30;14.13;;;;;;;0.01;65.09;96242.63;5031836;28;20209;-68
2022/03/14 06:37:43;;;;;;;27.73;14.20;;;;;;;0.03;67.22;96183.44;5031746;28;20584;-65
2022/03/14 06:40:10;;;;;;;29.73;15.07;;;;;;;0.14;67.80;96188.25;5032156;28;20277;-62
2022/03/14 06:42:41;;;;;;;32.20;17.17;;;;;;;0.40;65.64;96236.06;5032164;28;20216;-66
2022/03/14 06:45:07;;;;;;;29.80;15.67;;;;;;;0.15;66.66;96204.88;5014128;28;20651;-68
2022/03/14 06:47:34;;;;;;;32.03;16.47;;;;;;;0.26;67.90;96178.00;5014155;28;20185;-62
2022/03/14 06:49:59;;;;;;;29.67;15.77;;;;;;;0.47;67.34;96205.03;5031621;28;20202;-62
2022/03/14 06:52:25;;;;;;;33.77;16.37;;;;;;;0.49;66.45;96213.34;5014068;28;20331;-62
2022/03/14 06:54:50;;;;;;;31.17;16.33;;;;;;;0.70;66.37;96220.41;5031719;28;20213;-63
2022/03/14 06:57:16;;;;;;;29.83;16.43;;;;;;;0.98;65.35;96251.50;5031919;28;20174;-63
2022/03/14 06:59:41;;;;;;;34.37;16.20;;;;;;;1.11;65.37;96232.81;5031591;28;20182;-62
2022/03/14 07:02:08;;;;;;;35.17;14.60;;;;;;;1.29;63.80;96275.00;5031944;28;20444;-63
2022/03/14 07:04:34;;;;;;;37.43;16.20;;;;;;;1.31;63.79;96278.28;5031875;28;20259;-63
2022/03/14 07:07:03;;;;;;;30.80;15.47;;;;;;;1.46;63.12;96292.97;5032323;28;20210;-69
2022/03/14 07:09:30;;;;;;;31.10;16.07;;;;;;;1.59;63.71;96265.94;5013948;28;20221;-64
2022/03/14 07:11:56;;;;;;;30.67;15.43;;;;;;;1.74;62.88;96294.84;5032333;28;20209;-63
2022/03/14 07:14:22;;;;;;;24.90;13.80;;;;;;;2.02;60.09;96373.53;5035808;28;20186;-63
2022/03/14 07:16:49;;;;;;;24.73;12.87;;;;;;;1.78;58.99;96366.59;5035516;28;20301;-69
2022/03/14 07:19:14;;;;;;;25.10;13.10;;;;;;;1.80;60.66;96325.56;5017980;28;20608;-63
2022/03/14 07:21:40;;;;;;;24.63;12.87;;;;;;;2.07;60.04;96339.13;5035945;28;20699;-65
2022/03/14 07:24:06;;;;;;;22.37;12.23;;;;;;;2.16;61.04;96314.63;5035496;28;20211;-66
2022/03/14 07:26:32;;;;;;;22.13;11.20;;;;;;;2.33;58.57;96371.91;5017868;28;20344;-62
2022/03/14 07:28:57;;;;;;;20.83;12.07;;;;;;;2.12;59.43;96340.66;5017630;28;20209;-62
2022/03/14 07:31:24;;;;;;;24.17;11.40;;;;;;;2.26;59.28;96340.31;5035803;28;20210;-63
2022/03/14 07:33:50;;;;;;;23.40;10.87;;;;;;;2.17;55.61;96439.19;5035487;28;20175;-63
2022/03/14 07:36:16;;;;;;;19.17;10.63;;;;;;;1.95;55.83;96404.63;5035617;28;20279;-62
2022/03/14 07:38:42;;;;;;;19.23;9.03;;;;;;;1.91;55.26;96410.56;5035163;28;20544;-62
2022/03/14 07:41:10;;;;;;;19.63;10.63;;;;;;;1.77;55.64;96395.00;5017870;28;20226;-61
2022/03/14 07:43:39;;;;;;;20.03;11.20;;;;;;;1.85;56.23;96373.94;5017475;28;20621;-61
2022/03/14 07:46:05;;;;;;;22.80;10.17;;;;;;;1.97;57.19;96347.72;5035565;28;20680;-68
2022/03/14 07:48:31;;;;;;;23.87;11.13;;;;;;;2.20;56.39;96378.09;5017323;28;20178;-62
2022/03/14 07:50:56;;;;;;;20.40;11.13;;;;;;;2.26;57.96;96335.31;5035200;28;20203;-68
2022/03/14 07:53:22;;;;;;;21.20;10.80;;;;;;;2.47;56.01;96377.41;5017119;28;20570;-63
2022/03/14 07:55:48;;;;;;;24.23;11.83;;;;;;;2.53;56.28;96390.63;5034985;28;20255;-63
2022/03/14 07:58:13;;;;;;;22.30;11.10;;;;;;;2.50;54.82;96414.97;5017135;28;20653;-68
2022/03/14 08:00:47;;;;;;;22.83;11.83;;;;;;;2.61;56.41;96362.00;5003066;28;20589;-64
2022/03/14 08:03:15;;;;;;;25.33;11.57;;;;;;;2.61;55.55;96392.91;5034839;28;20209;-68
2022/03/14 08:05:42;;;;;;;23.83;10.37;;;;;;;2.56;56.35;96357.09;5035003;28;20206;-62
2022/03/14 08:08:08;;;;;;;15.87;8.83;;;;;;;2.54;55.21;96398.97;5016946;28;20186;-62
2022/03/14 08:10:36;;;;;;;16.33;8.20;;;;;;;2.57;56.31;96351.19;5017009;28;20730;-62
2022/03/14 08:13:01;;;;;;;17.97;9.03;;;;;;;2.48;56.55;96344.72;5034892;28;20661;-64
2022/03/14 08:15:32;;;;;;;14.90;8.67;;;;;;;2.61;54.92;96390.41;5034650;28;20868;-62
2022/03/14 08:18:03;;;;;;;11.90;7.87;;;;;;;2.89;56.10;96353.66;5016625;28;20205;-62
2022/03/14 08:20:29;;;;;;;16.57;8.50;;;;;;;3.15;56.79;96337.88;5034784;28;20708;-61
2022/03/14 08:22:58;;;;;;;15.80;7.23;;;;;;;3.46;54.17;96420.72;5034144;28;20209;-63
2022/03/14 08:25:30;;;;;;;19.40;9.27;;;;;;;3.53;53.53;96430.56;5032985;28;20655;-62
2022/03/14 08:27:56;;;;;;;15.50;8.53;;;;;;;3.70;53.13;96425.03;5034423;28;20602;-61
2022/03/14 08:30:22;;;;;;;17.87;8.83;;;;;;;3.93;52.80;96427.69;5016328;28;20294;-62
2022/03/14 08:32:49;;;;;;;21.10;9.13;;;;;;;4.09;52.76;96441.47;5034326;28;20190;-62
2022/03/14 08:35:17;;;;;;;14.77;7.90;;;;;;;4.06;50.31;96489.38;5016367;28;20556;-64
2022/03/14 08:37:44;;;;;;;19.33;8.77;;;;;;;4.07;52.49;96420.56;5034195;28;20196;-63
2022/03/14 08:40:12;;;;;;;20.43;9.40;;;;;;;4.36;53.34;96407.88;5016183;28;20210;-62
2022/03/14 08:42:39;;;;;;;17.70;8.53;;;;;;;4.77;50.95;96471.97;5016008;28;20210;-62
2022/03/14 08:45:06;;;;;;;15.03;8.50;;;;;;;5.16;50.69;96469.81;5033876;28;20214;-71
2022/03/14 08:47:32;;;;;;;18.53;9.00;;;;;;;5.42;49.20;96500.00;5016314;28;20214;-62
2022/03/14 08:52:23;;;;;;;16.52;8.25;;;;;;;5.62;45.73;96432.00;5032478;23;20238;-61
2022/03/14 08:54:48;;;;;;;16.07;8.60;;;;;;;5.55;46.33;96397.81;5033769;28;20234;-70
2022/03/14 08:57:16;;;;;;;19.37;8.00;;;;;;;5.59;45.39;96397.66;5033648;28;20190;-61
2022/03/14 08:59:43;;;;;;;15.33;8.40;;;;;;;5.42;44.18;96405.00;5033812;28;20178;-68
2022/03/14 09:02:09;;;;;;;15.43;7.90;;;;;;;5.96;45.95;96356.69;5034122;28;20211;-63
2022/03/14 09:04:35;;;;;;;20.60;9.10;;;;;;;6.13;44.75;96381.28;5033437;28;20225;-61
2022/03/14 09:07:00;;;;;;;15.63;9.27;;;;;;;6.62;45.00;96375.88;5033533;28;20288;-62
2022/03/14 09:09:26;;;;;;;22.40;10.50;;;;;;;7.04;44.86;96356.38;5033613;28;20185;-65
2022/03/14 09:11:51;;;;;;;15.00;7.57;;;;;;;7.24;41.87;96424.59;5015840;28;20211;-62
2022/03/14 09:14:18;;;;;;;15.83;7.03;;;;;;;7.32;42.25;96389.69;5033597;28;20182;-61
2022/03/14 09:16:44;;;;;;;16.37;7.43;;;;;;;7.75;42.20;96380.16;5033434;28;20703;-62
2022/03/14 09:19:09;;;;;;;13.60;7.83;;;;;;;8.02;42.13;96369.56;5033265;28;20192;-68
2022/03/14 09:21:35;;;;;;;17.83;7.80;;;;;;;8.05;41.04;96368.59;5033662;28;20689;-62
2022/03/14 09:24:01;;;;;;;14.03;7.47;;;;;;;8.46;40.98;96354.78;5033234;28;20214;-63
2022/03/14 09:26:27;;;;;;;11.97;7.23;;;;;;;8.86;40.08;96381.50;5033506;28;20282;-62
2022/03/14 09:28:52;;;;;;;10.03;5.73;;;;;;;8.95;39.92;96363.28;5033158;28;20170;-62
2022/03/14 09:31:18;;;;;;;12.10;6.03;;;;;;;8.88;39.81;96346.75;5033110;28;20210;-64
2022/03/14 09:33:44;;;;;;;11.97;5.90;;;;;;;8.86;37.14;96386.59;5033058;28;20179;-68
2022/03/14 09:36:09;;;;;;;11.13;5.37;;;;;;;8.86;39.14;96340.94;5032900;28;20624;-63
2022/03/14 09:38:35;;;;;;;9.43;5.80;;;;;;;8.95;38.64;96332.84;5015228;28;20182;-62
2022/03/14 09:41:03;;;;;;;10.97;5.87;;;;;;;9.13;38.36;96327.66;5033062;28;20670;-61
2022/03/14 09:43:37;;;;;;;3.63;2.70;;;;;;;9.16;36.03;96395.19;5032873;28;20206;-61
2022/03/14 09:46:08;;;;;;;6.07;3.33;;;;;;;9.37;35.87;96366.16;5014955;28;20242;-68
2022/03/14 09:48:39;;;;;;;4.00;3.27;;;;;;;9.48;34.44;96379.09;5032825;28;20162;-67
2022/03/14 09:51:06;;;;;;;5.47;3.20;;;;;;;9.44;34.18;96347.16;5015081;28;20221;-66
2022/03/14 09:53:33;;;;;;;5.67;3.63;;;;;;;9.65;34.60;96318.09;5032672;28;20312;-61
2022/03/14 09:55:59;;;;;;;7.87;3.63;;;;;;;9.64;35.07;96288.50;5014616;28;20214;-62
2022/03/14 09:58:26;;;;;;;6.73;3.90;;;;;;;9.81;34.63;96290.13;5032594;28;20175;-66
2022/03/14 10:00:51;;;;;;;7.10;3.97;;;;;;;10.16;35.13;96281.34;5014598;28;20279;-62
2022/03/14 10:03:18;;;;;;;5.53;3.83;;;;;;;10.33;33.49;96303.28;5014499;28;20743;-63
2022/03/14 10:05:44;;;;;;;7.07;4.47;;;;;;;9.66;32.85;96270.66;5032622;28;20220;-62
2022/03/14 10:08:14;;;;;;;4.57;3.80;;;;;;;9.85;33.19;96244.16;5032707;28;20647;-66
2022/03/14 10:10:41;;;;;;;5.30;3.50;;;;;;;10.53;34.44;96229.22;5014583;28;20765;-67
2022/03/14 10:13:10;;;;;;;4.57;3.40;;;;;;;10.55;34.47;96220.59;5014524;28;20573;-62
2022/03/14 10:15:38;;;;;;;7.53;4.10;;;;;;;10.67;33.48;96227.47;5032637;28;20209;-60
2022/03/14 10:18:15;;;;;;;6.00;3.80;;;;;;;10.97;34.30;96215.44;5032124;28;20178;-64
2022/03/14 10:21:05;;;;;;;4.83;4.03;;;;;;;11.26;33.66;96216.19;5032626;28;20205;-62
2022/03/14 10:23:43;;;;;;;6.73;4.30;;;;;;;11.30;34.30;96201.53;5014211;28;20589;-63
2022/03/14 10:26:16;;;;;;;7.70;4.10;;;;;;;11.44;33.39;96211.69;5015500;28;20563;-64
2022/03/14 10:28:41;;;;;;;6.23;4.30;;;;;;;11.71;33.32;96205.69;5031988;28;20190;-63
2022/03/14 10:31:07;;;;;;;5.47;4.07;;;;;;;11.71;31.52;96223.53;5032390;28;20202;-68
2022/03/14 10:33:34;;;;;;;6.97;4.73;;;;;;;11.49;32.77;96192.63;5014304;28;20189;-62
2022/03/14 10:36:00;;;;;;;6.53;4.43;;;;;;;11.54;32.38;96205.91;5032169;28;20296;-63
2022/03/14 10:38:26;;;;;;;6.80;4.17;;;;;;;11.39;31.35;96206.06;5031993;28;20531;-69
2022/03/14 10:40:53;;;;;;;4.87;3.97;;;;;;;11.48;32.75;96178.28;5014237;28;20206;-63
2022/03/14 10:43:23;;;;;;;6.07;3.43;;;;;;;11.75;32.63;96188.47;5032047;28;20241;-62
2022/03/14 10:45:49;;;;;;;4.67;3.53;;;;;;;11.72;29.67;96220.06;5031862;28;20210;-66
2022/03/14 10:48:15;;;;;;;6.13;3.73;;;;;;;11.78;30.01;96201.81;5013427;28;20185;-66
2022/03/14 10:50:42;;;;;;;5.50;4.03;;;;;;;11.97;32.17;96168.31;5031605;28;20263;-63
2022/03/14 10:53:18;;;;;;;7.20;4.10;;;;;;;11.67;31.10;96177.97;5031536;28;20637;-61
2022/03/14 10:55:45;;;;;;;7.17;4.57;;;;;;;11.99;32.61;96146.09;5032006;28;20325;-63
2022/03/14 10:58:14;;;;;;;6.83;4.30;;;;;;;12.31;32.55;96154.13;5032009;28;20179;-64
2022/03/14 11:00:52;;;;;;;5.67;4.17;;;;;;;11.69;32.24;96156.56;5031869;28;20210;-67
2022/03/14 11:03:25;;;;;;;8.70;4.73;;;;;;;12.11;31.63;96169.94;5031941;28;20237;-66
2022/03/14 11:05:52;;;;;;;5.67;3.87;;;;;;;12.32;32.14;96143.81;5031481;28;20209;-67
2022/03/14 11:08:48;;;;;;;5.40;4.10;;;;;;;12.70;30.77;96166.75;5031438;28;20244;-66
2022/03/14 11:11:20;;;;;;;7.47;3.83;;;;;;;12.73;29.07;96179.28;5030555;28;20218;-61
2022/03/14 11:13:48;;;;;;;9.90;4.57;;;;;;;12.62;30.00;96161.34;5031309;28;20175;-61
2022/03/14 11:16:29;;;;;;;5.53;4.27;;;;;;;12.59;30.27;96153.88;5013643;28;20202;-66
2022/03/14 11:18:56;;;;;;;5.07;4.03;;;;;;;12.61;30.98;96136.75;5037963;23;20233;-61
2022/03/14 11:21:25;;;;;;;9.10;4.93;;;;;;;12.52;31.69;96122.09;5031538;28;20575;-62
2022/03/14 11:23:53;;;;;;;8.33;4.70;;;;;;;12.75;31.38;96126.38;5031185;28;20297;-66
2022/03/14 11:26:21;;;;;;;7.57;4.57;;;;;;;12.98;33.08;96101.81;5031525;28;20202;-63
2022/03/14 11:28:49;;;;;;;6.07;4.47;;;;;;;12.71;30.68;96144.56;5031331;28;20174;-66
2022/03/14 11:31:17;;;;;;;6.93;4.20;;;;;;;12.79;30.96;96132.09;5031232;28;20569;-67
2022/03/14 11:33:43;;;;;;;6.17;4.37;;;;;;;12.74;31.26;96129.88;5013416;28;20218;-67